Time;durP1;ratioP1;P1;durP2;ratioP2;P2;SDS_P1;SDS_P2;PMS_P1;PMS_P2;Temp;Humidity;BMP_temperature;BMP_pressure;BME280_temperature;BME280_humidity;BME280_pressure;Samples;Min_cycle;Max_cycle;Signal;HPM_P1;HPM_P2
2021/01/09 00:00:08;;;;;;;23.70;16.35;;;;;;;4.92;78.88;100179.86;2920923;80;21173;-64
2021/01/09 00:04:13;;;;;;;25.85;18.15;;;;;;;4.88;78.89;100186.72;2930863;80;21094;-64
2021/01/09 00:08:16;;;;;;;25.32;18.17;;;;;;;4.82;78.73;100194.52;2919119;80;21173;-64
2021/01/09 00:12:19;;;;;;;22.93;18.52;;;;;;;4.70;78.87;100194.77;2916389;80;21154;-65
2021/01/09 00:16:23;;;;;;;29.12;20.17;;;;;;;4.65;79.26;100198.98;2945240;80;21157;-64
2021/01/09 00:20:27;;;;;;;27.10;18.17;;;;;;;4.64;79.65;100198.61;2922029;80;21104;-64
2021/01/09 00:24:31;;;;;;;23.50;17.75;;;;;;;4.64;79.65;100203.88;2911528;81;21174;-64
2021/01/09 00:28:37;;;;;;;22.35;17.42;;;;;;;4.66;79.60;100196.73;2926417;80;21093;-65
2021/01/09 00:32:40;;;;;;;21.52;15.18;;;;;;;4.62;79.32;100202.26;2885973;81;21163;-64
2021/01/09 00:36:50;;;;;;;21.48;15.05;;;;;;;4.52;79.81;100199.31;2858823;81;21182;-65
2021/01/09 00:40:53;;;;;;;20.72;16.00;;;;;;;4.51;79.91;100210.78;2965858;79;21096;-65
2021/01/09 00:44:56;;;;;;;17.87;15.72;;;;;;;4.52;80.28;100207.21;2886786;80;21140;-64
2021/01/09 00:48:59;;;;;;;20.30;16.30;;;;;;;4.55;80.54;100214.48;2942869;79;21157;-64
2021/01/09 00:53:02;;;;;;;22.15;17.75;;;;;;;4.63;80.14;100217.16;2990265;79;21141;-64
2021/01/09 00:57:05;;;;;;;24.47;14.87;;;;;;;4.66;80.15;100225.71;2909325;81;21147;-64
2021/01/09 01:01:09;;;;;;;23.87;17.02;;;;;;;4.55;79.53;100228.97;2965733;79;21587;-65
2021/01/09 01:05:13;;;;;;;27.25;19.40;;;;;;;4.43;80.10;100227.89;2963462;79;21145;-65
2021/01/09 01:09:16;;;;;;;25.52;15.53;;;;;;;4.46;80.75;100226.02;2908996;81;21569;-64
2021/01/09 01:13:19;;;;;;;25.62;17.67;;;;;;;4.51;80.62;100225.27;2990573;79;21102;-64
2021/01/09 01:17:22;;;;;;;27.02;18.82;;;;;;;4.51;80.38;100231.86;2905868;80;21159;-65
2021/01/09 01:21:25;;;;;;;20.95;15.72;;;;;;;4.49;80.63;100237.69;2858901;83;22000;-64
2021/01/09 01:25:28;;;;;;;23.32;17.15;;;;;;;4.48;80.49;100240.81;2858952;82;21627;-64
2021/01/09 01:29:34;;;;;;;27.13;19.53;;;;;;;4.46;80.48;100236.55;2859350;83;21144;-65
2021/01/09 01:33:39;;;;;;;23.25;16.60;;;;;;;4.42;80.68;100244.63;2859321;83;21152;-65
2021/01/09 01:37:42;;;;;;;23.40;17.20;;;;;;;4.42;80.86;100247.27;2859501;83;21164;-65
2021/01/09 01:41:46;;;;;;;23.38;16.50;;;;;;;4.43;80.87;100248.97;2859080;83;21627;-65
2021/01/09 01:45:50;;;;;;;32.30;19.57;;;;;;;4.40;80.83;100245.19;2859363;82;21562;-64
2021/01/09 01:49:54;;;;;;;28.32;19.35;;;;;;;4.41;81.00;100248.20;2966454;79;21164;-64
2021/01/09 01:53:57;;;;;;;27.02;17.57;;;;;;;4.41;80.93;100253.47;2881203;81;21140;-64
2021/01/09 01:58:00;;;;;;;27.95;18.57;;;;;;;4.40;80.88;100257.05;2859154;83;21171;-65
2021/01/09 02:02:13;;;;;;;25.60;17.10;;;;;;;4.36;80.83;100249.39;2938083;81;21148;-65
2021/01/09 02:06:21;;;;;;;19.65;15.98;;;;;;;4.38;81.02;100260.69;2938015;81;21189;-65
2021/01/09 02:10:25;;;;;;;24.10;16.00;;;;;;;4.36;80.91;100264.74;2893102;81;21147;-65
2021/01/09 02:14:51;;;;;;;16.60;12.03;;;;;;;4.33;80.83;100269.33;2938200;81;21623;-65
2021/01/09 02:18:56;;;;;;;16.25;12.37;;;;;;;4.19;80.69;100270.10;2969052;79;21901;-65
2021/01/09 02:22:59;;;;;;;13.98;10.03;;;;;;;4.03;81.02;100274.89;2890968;80;21191;-64
2021/01/09 02:27:04;;;;;;;13.10;11.18;;;;;;;3.81;81.48;100278.69;2859048;83;21160;-65
2021/01/09 02:31:08;;;;;;;16.07;9.03;;;;;;;3.68;82.08;100280.27;2859178;83;21196;-65
2021/01/09 02:35:15;;;;;;;12.58;8.30;;;;;;;3.54;82.60;100275.30;2905895;81;21187;-65
2021/01/09 02:39:19;;;;;;;15.18;9.23;;;;;;;3.44;83.14;100276.69;2968438;79;21150;-65
2021/01/09 02:43:27;;;;;;;9.53;7.60;;;;;;;3.35;83.55;100271.44;2916894;81;21183;-65
2021/01/09 02:47:30;;;;;;;14.95;10.08;;;;;;;3.32;83.71;100274.69;2990635;79;22182;-64
2021/01/09 02:51:35;;;;;;;10.10;7.12;;;;;;;3.28;83.58;100282.73;2990204;79;21106;-65
2021/01/09 02:55:40;;;;;;;11.88;7.92;;;;;;;3.23;83.17;100279.50;2991577;79;21138;-65
2021/01/09 02:59:43;;;;;;;10.00;8.10;;;;;;;3.27;83.32;100279.72;2991293;79;21083;-64
2021/01/09 03:03:46;;;;;;;12.15;8.53;;;;;;;3.24;83.09;100279.89;2991550;79;21553;-65
2021/01/09 03:07:49;;;;;;;16.37;6.45;;;;;;;3.21;83.19;100288.39;2991635;79;21142;-64
2021/01/09 03:11:53;;;;;;;9.20;7.47;;;;;;;3.14;83.08;100290.47;2990612;79;21105;-65
2021/01/09 03:15:56;;;;;;;10.32;7.70;;;;;;;3.11;83.14;100288.00;2990321;79;21575;-65
2021/01/09 03:19:59;;;;;;;7.35;5.55;;;;;;;3.10;83.20;100283.67;2958853;78;21196;-64
2021/01/09 03:24:03;;;;;;;11.70;9.15;;;;;;;3.12;83.21;100292.33;2917637;80;21606;-64
2021/01/09 03:28:06;;;;;;;11.90;7.83;;;;;;;3.05;83.01;100290.50;2917608;81;21197;-65
2021/01/09 03:32:10;;;;;;;12.90;8.33;;;;;;;3.00;83.09;100292.04;2918082;81;21136;-65
2021/01/09 03:36:13;;;;;;;13.75;9.95;;;;;;;2.93;83.29;100295.88;2917779;81;21156;-65
2021/01/09 03:40:16;;;;;;;12.28;10.72;;;;;;;2.92;83.40;100292.88;2917587;80;21689;-65
2021/01/09 03:44:20;;;;;;;14.70;9.35;;;;;;;2.91;83.53;100292.48;2917544;81;21124;-63
2021/01/09 03:48:23;;;;;;;12.65;8.05;;;;;;;2.94;83.60;100296.27;2917784;81;21116;-64
2021/01/09 03:52:26;;;;;;;10.72;7.83;;;;;;;2.94;83.74;100297.58;2917552;81;21149;-64
2021/01/09 03:56:29;;;;;;;9.75;7.45;;;;;;;2.95;83.88;100299.77;2917584;81;21147;-64
2021/01/09 04:00:33;;;;;;;11.55;9.35;;;;;;;2.92;83.95;100309.11;2960313;80;21164;-65
2021/01/09 04:04:36;;;;;;;12.33;6.87;;;;;;;2.93;84.00;100307.70;2914756;81;21455;-64
2021/01/09 04:08:39;;;;;;;13.72;9.23;;;;;;;2.92;83.84;100316.52;2917712;80;21077;-64
2021/01/09 04:12:43;;;;;;;13.08;9.90;;;;;;;2.90;83.91;100318.37;2914769;81;21159;-64
2021/01/09 04:16:46;;;;;;;10.85;6.62;;;;;;;2.89;83.95;100320.62;2917103;81;21160;-64
2021/01/09 04:20:51;;;;;;;8.95;5.75;;;;;;;2.84;84.15;100327.88;2911666;81;21192;-64
2021/01/09 04:24:54;;;;;;;10.58;8.23;;;;;;;2.82;84.29;100327.11;2911683;81;21189;-65
2021/01/09 04:28:57;;;;;;;12.53;7.40;;;;;;;2.87;84.34;100331.67;2912079;81;21139;-65
2021/01/09 04:33:04;;;;;;;7.22;4.97;;;;;;;2.84;84.25;100335.77;2912043;81;21168;-63
2021/01/09 04:37:07;;;;;;;15.40;6.17;;;;;;;2.71;84.55;100337.66;2911762;81;21688;-65
2021/01/09 04:41:11;;;;;;;9.40;7.40;;;;;;;2.64;84.48;100338.03;2911690;80;21117;-65
2021/01/09 04:45:15;;;;;;;11.33;6.67;;;;;;;2.52;84.48;100342.95;2911661;81;21149;-64
2021/01/09 04:49:20;;;;;;;10.15;5.85;;;;;;;2.50;84.43;100352.69;2911754;81;21121;-64
2021/01/09 04:53:24;;;;;;;8.48;5.12;;;;;;;2.45;84.26;100346.78;2911463;81;21160;-63
2021/01/09 04:57:33;;;;;;;9.95;7.60;;;;;;;2.47;84.26;100350.66;2916567;80;22312;-66
2021/01/09 05:01:40;;;;;;;6.65;5.67;;;;;;;2.51;84.17;100361.40;2916654;80;21124;-64
2021/01/09 05:05:43;;;;;;;9.83;8.35;;;;;;;2.49;83.67;100364.12;2916837;81;21203;-65
2021/01/09 05:09:47;;;;;;;9.70;5.65;;;;;;;2.54;84.00;100366.50;2916599;81;21164;-65
2021/01/09 05:13:50;;;;;;;10.58;7.17;;;;;;;2.47;84.05;100372.53;2916618;81;21158;-64
2021/01/09 05:17:53;;;;;;;8.50;6.70;;;;;;;2.49;84.32;100369.37;2916480;81;21120;-64
2021/01/09 05:22:02;;;;;;;8.48;7.67;;;;;;;2.54;84.38;100372.63;2916732;80;22215;-64
2021/01/09 05:26:07;;;;;;;10.28;6.58;;;;;;;2.57;84.20;100376.41;2916678;81;21160;-65
2021/01/09 05:30:11;;;;;;;7.95;6.95;;;;;;;2.65;83.80;100385.25;2889440;81;21704;-65
2021/01/09 05:34:15;;;;;;;7.72;6.30;;;;;;;2.67;83.22;100383.39;2916556;81;21163;-64
2021/01/09 05:38:23;;;;;;;9.65;6.75;;;;;;;2.70;83.38;100395.06;2916667;81;22177;-64
2021/01/09 05:42:35;;;;;;;12.45;8.00;;;;;;;2.82;82.86;100398.05;3008568;78;23459;-63
2021/01/09 05:46:40;;;;;;;10.63;8.05;;;;;;;2.74;82.66;100402.80;2982806;79;21140;-63
2021/01/09 05:50:45;;;;;;;14.38;6.78;;;;;;;2.77;82.65;100403.99;2878118;82;21144;-63
2021/01/09 05:54:48;;;;;;;14.23;7.28;;;;;;;2.78;82.46;100405.70;2928443;81;21164;-64
2021/01/09 05:58:55;;;;;;;31.55;9.43;;;;;;;2.85;82.77;100413.21;2877840;82;21622;-64
2021/01/09 06:03:11;;;;;;;8.78;7.42;;;;;;;2.98;82.51;100418.73;2932417;81;21128;-65
2021/01/09 06:07:26;;;;;;;13.83;8.95;;;;;;;3.06;81.85;100420.13;3120136;75;22835;-63
2021/01/09 06:11:42;;;;;;;9.85;7.08;;;;;;;2.99;81.74;100430.94;3048180;77;21168;-64
2021/01/09 06:15:48;;;;;;;11.40;8.23;;;;;;;2.99;81.53;100431.39;3072940;77;21562;-64
2021/01/09 06:19:52;;;;;;;14.38;8.35;;;;;;;2.98;81.69;100438.89;3022634;78;21622;-64
2021/01/09 06:23:59;;;;;;;9.05;7.25;;;;;;;3.06;81.89;100441.16;3022525;78;21129;-65
2021/01/09 06:28:06;;;;;;;10.78;6.70;;;;;;;3.22;82.01;100446.06;3022663;78;21144;-65
2021/01/09 06:32:11;;;;;;;7.97;6.20;;;;;;;3.42;81.77;100450.80;3037122;77;21579;-65
2021/01/09 06:36:15;;;;;;;6.97;5.03;;;;;;;3.55;81.26;100449.28;3022582;78;21125;-65
2021/01/09 06:40:19;;;;;;;6.80;6.15;;;;;;;3.68;80.59;100452.59;3044848;77;21126;-65
2021/01/09 06:44:25;;;;;;;6.47;5.40;;;;;;;3.75;79.99;100456.63;3078162;77;21686;-65
2021/01/09 06:48:31;;;;;;;7.90;5.55;;;;;;;3.76;79.31;100459.66;3074328;76;21143;-65
2021/01/09 06:52:56;;;;;;;5.93;5.23;;;;;;;3.81;79.20;100460.27;3074445;76;21119;-66
2021/01/09 06:57:13;;;;;;;10.55;7.12;;;;;;;3.80;78.69;100458.56;3073803;76;21574;-64
2021/01/09 07:01:19;;;;;;;12.35;8.85;;;;;;;3.78;78.52;100458.23;3074028;77;21589;-66
2021/01/09 07:05:23;;;;;;;10.48;6.40;;;;;;;3.75;78.42;100463.66;3076133;76;21119;-64
2021/01/09 07:09:28;;;;;;;7.50;6.78;;;;;;;3.71;78.24;100472.16;3080234;75;21109;-65
2021/01/09 07:13:32;;;;;;;9.65;7.58;;;;;;;3.70;78.31;100473.09;3103571;75;21129;-65
2021/01/09 07:17:41;;;;;;;6.55;5.42;;;;;;;3.71;78.38;100477.42;3004466;79;21137;-66
2021/01/09 07:21:47;;;;;;;9.63;7.08;;;;;;;3.67;78.05;100485.95;2987967;79;21146;-64
2021/01/09 07:25:52;;;;;;;7.60;5.80;;;;;;;3.67;78.41;100488.59;2973681;80;21172;-66
2021/01/09 07:29:57;;;;;;;6.37;5.58;;;;;;;3.70;78.23;100495.45;2949570;80;21156;-65
2021/01/09 07:34:00;;;;;;;9.75;7.28;;;;;;;3.68;78.33;100504.77;3021832;77;21153;-63
2021/01/09 07:38:06;;;;;;;6.40;5.50;;;;;;;3.73;78.35;100509.77;3012166;79;21588;-65
2021/01/09 07:42:30;;;;;;;8.80;6.10;;;;;;;3.75;78.17;100514.52;3012885;78;21145;-65
2021/01/09 07:46:33;;;;;;;6.05;5.45;;;;;;;3.79;78.06;100519.14;3012186;79;21141;-65
2021/01/09 07:50:43;;;;;;;7.05;5.40;;;;;;;3.83;77.91;100520.24;3012505;78;21108;-65
2021/01/09 07:54:47;;;;;;;8.58;5.53;;;;;;;3.88;78.02;100523.97;3012302;78;22138;-65
2021/01/09 07:58:51;;;;;;;8.93;5.33;;;;;;;3.88;78.04;100523.97;3012471;79;21108;-65
2021/01/09 08:02:55;;;;;;;8.85;5.58;;;;;;;3.90;77.47;100529.14;3012332;79;21136;-65
2021/01/09 08:07:00;;;;;;;6.35;5.72;;;;;;;3.85;77.46;100528.08;3007386;79;21104;-65
2021/01/09 08:11:05;;;;;;;9.03;7.05;;;;;;;3.82;77.78;100535.64;3006102;79;21104;-65
2021/01/09 08:15:09;;;;;;;11.48;6.75;;;;;;;3.83;77.59;100545.24;3007553;77;21171;-65
2021/01/09 08:19:20;;;;;;;7.62;5.47;;;;;;;3.86;77.75;100547.72;2967962;79;21224;-65
2021/01/09 08:23:23;;;;;;;9.35;7.55;;;;;;;3.90;77.65;100550.19;3005157;79;21149;-65
2021/01/09 08:27:28;;;;;;;10.43;7.15;;;;;;;3.96;77.64;100553.86;2973281;79;21133;-63
2021/01/09 08:31:36;;;;;;;13.70;8.28;;;;;;;3.97;77.61;100549.81;2959107;79;21130;-64
2021/01/09 08:35:45;;;;;;;12.43;8.38;;;;;;;3.99;77.57;100551.91;3002956;79;21631;-65
2021/01/09 08:39:48;;;;;;;13.15;7.40;;;;;;;4.03;77.41;100552.61;3014551;77;21592;-65
2021/01/09 08:43:54;;;;;;;12.00;7.40;;;;;;;4.06;77.39;100560.83;3013564;77;21197;-66
2021/01/09 08:47:58;;;;;;;6.95;6.28;;;;;;;4.06;77.25;100564.30;3008438;79;21130;-65
2021/01/09 08:52:06;;;;;;;12.90;9.10;;;;;;;4.05;77.01;100567.86;3007048;79;21141;-65
2021/01/09 08:56:09;;;;;;;14.25;8.00;;;;;;;4.03;77.04;100564.45;3029447;77;21129;-64
2021/01/09 09:00:14;;;;;;;10.13;7.80;;;;;;;3.99;76.57;100571.64;2944178;79;21154;-65
2021/01/09 09:04:18;;;;;;;10.88;7.53;;;;;;;3.97;76.58;100565.61;2985722;79;21153;-64
2021/01/09 09:08:24;;;;;;;13.30;8.73;;;;;;;3.96;76.59;100576.23;2967382;79;21153;-66
2021/01/09 09:12:27;;;;;;;13.62;10.18;;;;;;;3.98;76.69;100578.32;2987112;77;21098;-63
2021/01/09 09:16:34;;;;;;;11.22;8.90;;;;;;;4.03;76.51;100580.70;3008564;79;21564;-65
2021/01/09 09:20:37;;;;;;;9.03;7.78;;;;;;;4.04;75.79;100578.48;3009411;77;21733;-66
2021/01/09 09:24:47;;;;;;;10.25;7.70;;;;;;;4.05;75.65;100576.23;2968126;79;21160;-64
2021/01/09 09:28:54;;;;;;;11.70;8.15;;;;;;;4.09;75.75;100582.56;2961745;79;21148;-64
2021/01/09 09:33:11;;;;;;;9.88;7.83;;;;;;;4.14;75.43;100582.34;2976447;79;21137;-64
2021/01/09 09:37:14;;;;;;;7.90;6.58;;;;;;;4.22;75.27;100584.59;3000251;79;21125;-64
2021/01/09 09:41:17;;;;;;;10.85;6.28;;;;;;;4.26;75.07;100583.50;3007107;79;21151;-65
2021/01/09 09:45:22;;;;;;;10.05;5.85;;;;;;;4.33;75.06;100584.05;3008761;78;21160;-66
2021/01/09 09:49:26;;;;;;;8.58;5.30;;;;;;;4.40;75.14;100577.08;3009635;79;21148;-65
2021/01/09 09:53:29;;;;;;;10.85;6.58;;;;;;;4.39;72.65;100570.55;3024910;77;21122;-64
2021/01/09 09:57:33;;;;;;;11.40;8.83;;;;;;;4.34;72.12;100572.58;3006939;79;21591;-65
2021/01/09 10:01:37;;;;;;;10.45;7.40;;;;;;;4.24;71.96;100571.75;3008417;77;21101;-65
2021/01/09 10:05:41;;;;;;;11.43;7.83;;;;;;;4.19;71.28;100576.37;3029629;77;21153;-69
2021/01/09 10:09:44;;;;;;;15.00;8.10;;;;;;;4.12;72.03;100574.52;2979365;79;21706;-65
2021/01/09 10:13:48;;;;;;;12.73;9.08;;;;;;;4.07;71.82;100572.58;2961815;79;21181;-64
2021/01/09 10:17:53;;;;;;;9.55;7.03;;;;;;;4.13;73.00;100568.34;3007804;77;21133;-66
2021/01/09 10:21:57;;;;;;;9.75;7.08;;;;;;;4.24;73.10;100566.48;3027596;77;21122;-64
2021/01/09 10:26:00;;;;;;;10.85;8.70;;;;;;;4.34;73.24;100568.18;3022104;77;21591;-64
2021/01/09 10:30:05;;;;;;;11.75;9.23;;;;;;;4.44;73.03;100560.66;3005824;79;21560;-66
2021/01/09 10:34:09;;;;;;;16.87;10.23;;;;;;;4.56;72.68;100560.00;2959239;80;21436;-67
2021/01/09 10:38:14;;;;;;;8.85;7.42;;;;;;;4.61;72.52;100561.08;2992356;77;21138;-66
2021/01/09 10:42:18;;;;;;;12.73;7.78;;;;;;;4.59;72.25;100560.31;2925399;78;21125;-65
2021/01/09 10:46:25;;;;;;;15.48;10.43;;;;;;;4.63;72.33;100557.89;2981568;78;21567;-66
2021/01/09 10:50:28;;;;;;;18.07;11.48;;;;;;;4.56;71.99;100556.53;2983856;78;21483;-66
2021/01/09 10:54:34;;;;;;;17.55;13.15;;;;;;;4.45;72.22;100558.86;2979459;78;21140;-65
2021/01/09 10:58:39;;;;;;;19.80;13.78;;;;;;;4.24;72.24;100556.40;2989166;78;21148;-65
2021/01/09 11:02:43;;;;;;;20.17;12.80;;;;;;;4.07;72.69;100559.42;2975792;78;21109;-67
2021/01/09 11:06:53;;;;;;;17.12;11.55;;;;;;;3.99;73.61;100555.84;2972482;79;21144;-64
2021/01/09 11:11:07;;;;;;;22.02;13.90;;;;;;;3.94;73.89;100553.08;2963746;78;21094;-64
2021/01/09 11:15:12;;;;;;;17.50;12.27;;;;;;;3.96;74.24;100555.17;2999536;78;21148;-65
2021/01/09 11:19:15;;;;;;;20.05;12.53;;;;;;;4.02;74.57;100556.63;2950678;80;21805;-64
2021/01/09 11:23:20;;;;;;;17.92;11.18;;;;;;;4.17;74.25;100551.07;2940245;79;21599;-64
2021/01/09 11:27:23;;;;;;;14.28;12.88;;;;;;;4.21;73.46;100556.56;2932521;81;21526;-64
2021/01/09 11:31:26;;;;;;;15.55;11.35;;;;;;;4.23;74.20;100553.38;2943265;80;21105;-64
2021/01/09 11:35:29;;;;;;;20.60;13.40;;;;;;;4.28;74.17;100552.67;2945606;79;21568;-66
2021/01/09 11:39:32;;;;;;;20.00;13.18;;;;;;;4.37;73.56;100543.45;2930072;81;21138;-65
2021/01/09 11:43:39;;;;;;;17.27;12.37;;;;;;;4.37;73.49;100548.27;2930036;81;21162;-66
2021/01/09 11:47:43;;;;;;;26.20;16.62;;;;;;;4.29;73.15;100551.73;2930351;81;21157;-65
2021/01/09 11:51:47;;;;;;;23.20;16.32;;;;;;;4.28;74.08;100553.98;2930034;80;21132;-64
2021/01/09 11:55:52;;;;;;;20.40;14.83;;;;;;;4.26;73.83;100558.48;2962676;79;21180;-64
2021/01/09 11:59:55;;;;;;;28.27;17.87;;;;;;;4.26;74.17;100559.35;2929938;81;21117;-62
2021/01/09 12:03:58;;;;;;;21.65;16.02;;;;;;;4.26;73.98;100559.80;2962279;78;21144;-66
2021/01/09 12:08:02;;;;;;;28.67;19.02;;;;;;;4.33;73.82;100569.11;2951978;80;21153;-61
2021/01/09 12:12:06;;;;;;;23.90;15.38;;;;;;;4.35;73.70;100568.56;3006949;79;21658;-65
2021/01/09 12:16:11;;;;;;;26.62;17.42;;;;;;;4.34;73.59;100574.77;3007026;79;21642;-63
2021/01/09 12:20:15;;;;;;;33.02;21.77;;;;;;;4.46;73.75;100575.05;2956790;79;21145;-62
2021/01/09 12:24:18;;;;;;;26.10;16.95;;;;;;;4.53;73.60;100582.56;3041253;77;21117;-63
2021/01/09 12:28:23;;;;;;;34.18;24.10;;;;;;;4.52;73.81;100574.72;3007061;79;21138;-62
2021/01/09 12:32:26;;;;;;;33.50;23.90;;;;;;;4.41;73.31;100572.64;3006813;79;21139;-63
2021/01/09 12:36:30;;;;;;;43.30;24.92;;;;;;;4.32;73.73;100575.28;3007282;77;21144;-63
2021/01/09 12:40:35;;;;;;;31.27;21.30;;;;;;;4.30;74.33;100574.52;2967831;79;21153;-65
2021/01/09 12:44:39;;;;;;;36.53;24.15;;;;;;;4.26;74.25;100569.02;2981051;79;21169;-64
2021/01/09 12:48:42;;;;;;;56.20;31.42;;;;;;;4.27;74.43;100579.94;2984007;79;21516;-62
2021/01/09 12:52:45;;;;;;;35.90;24.07;;;;;;;4.23;74.49;100579.27;2926949;81;21085;-63
2021/01/09 12:56:48;;;;;;;26.40;17.23;;;;;;;4.23;74.52;100570.50;3007116;79;21149;-62
2021/01/09 13:00:51;;;;;;;27.75;19.65;;;;;;;4.25;74.61;100575.22;3007202;78;22243;-61
2021/01/09 13:04:54;;;;;;;34.15;20.10;;;;;;;4.18;74.38;100573.84;3006818;79;21130;-64
2021/01/09 13:08:59;;;;;;;25.72;17.23;;;;;;;4.18;74.30;100575.98;3005947;78;21567;-64
2021/01/09 13:13:02;;;;;;;29.20;22.27;;;;;;;4.08;73.93;100572.13;3005875;79;21149;-63
2021/01/09 13:17:10;;;;;;;31.30;19.25;;;;;;;4.02;73.67;100571.09;3005907;79;21579;-61
2021/01/09 13:21:10;;;;;;;32.25;20.80;;;;;;;4.00;74.14;100568.08;3005797;77;21689;-60
2021/01/09 13:25:15;;;;;;;26.82;14.83;;;;;;;4.02;74.45;100579.86;3011848;77;21165;-60
2021/01/09 13:29:19;;;;;;;19.37;12.23;;;;;;;3.96;74.49;100579.70;3015145;78;21580;-61
2021/01/09 13:33:23;;;;;;;29.15;18.70;;;;;;;3.87;74.78;100589.37;3010838;79;21149;-63
2021/01/09 13:37:26;;;;;;;27.25;19.87;;;;;;;3.89;74.76;100590.16;3007979;77;21094;-58
2021/01/09 13:41:29;;;;;;;25.72;19.75;;;;;;;3.89;74.88;100589.28;3009374;78;21145;-60
2021/01/09 13:45:32;;;;;;;30.95;20.62;;;;;;;3.86;74.94;100595.09;3006640;79;21153;-64
2021/01/09 13:49:38;;;;;;;28.02;18.45;;;;;;;3.82;74.64;100596.17;3057166;77;21122;-65
2021/01/09 13:53:40;;;;;;;28.67;17.70;;;;;;;3.80;74.61;100603.30;3043148;77;21651;-64
2021/01/09 13:57:45;;;;;;;27.93;16.35;;;;;;;3.80;75.16;100609.87;3006266;79;21101;-66
2021/01/09 14:01:51;;;;;;;26.52;16.17;;;;;;;3.78;74.67;100615.67;3006147;79;21145;-63
2021/01/09 14:05:54;;;;;;;21.37;15.65;;;;;;;3.78;75.29;100616.99;3006130;79;21141;-64
2021/01/09 14:09:57;;;;;;;17.67;11.68;;;;;;;3.78;75.06;100626.20;3005860;79;21121;-64
2021/01/09 14:14:01;;;;;;;22.48;13.62;;;;;;;3.75;75.00;100623.72;3006259;79;21121;-62
2021/01/09 14:18:04;;;;;;;17.20;13.08;;;;;;;3.73;75.38;100628.18;3005802;79;21561;-62
2021/01/09 14:22:08;;;;;;;19.00;12.33;;;;;;;3.73;75.46;100631.29;3005944;78;21204;-63
2021/01/09 14:26:13;;;;;;;21.77;15.45;;;;;;;3.78;76.11;100633.23;3016780;77;21114;-62
2021/01/09 14:30:17;;;;;;;20.95;13.10;;;;;;;3.82;75.86;100636.97;3031037;77;21157;-62
2021/01/09 14:34:20;;;;;;;22.00;14.78;;;;;;;3.84;75.75;100636.91;3008316;77;21128;-64
2021/01/09 14:38:27;;;;;;;23.62;16.52;;;;;;;3.90;76.25;100642.31;3006106;79;21183;-62
2021/01/09 14:42:28;;;;;;;23.53;17.90;;;;;;;4.02;76.05;100641.73;3015323;79;21620;-62
2021/01/09 14:46:32;;;;;;;26.77;17.95;;;;;;;3.98;75.89;100641.50;3011574;78;21134;-63
2021/01/09 14:50:37;;;;;;;29.60;16.27;;;;;;;3.90;75.95;100648.89;3015052;79;21082;-64
2021/01/09 14:54:40;;;;;;;31.35;18.32;;;;;;;3.83;76.34;100653.14;3011552;79;21122;-62
2021/01/09 14:58:43;;;;;;;23.52;15.58;;;;;;;3.80;76.19;100658.56;3037841;77;21126;-61
2021/01/09 15:02:47;;;;;;;24.25;16.82;;;;;;;3.83;76.62;100663.67;3019122;77;21079;-61
2021/01/09 15:06:50;;;;;;;17.20;13.03;;;;;;;3.88;76.92;100667.86;3005722;79;21487;-62
2021/01/09 15:10:54;;;;;;;22.77;15.55;;;;;;;3.94;76.93;100665.79;3039412;77;21125;-62
2021/01/09 15:14:57;;;;;;;25.97;17.32;;;;;;;3.99;77.02;100667.73;3060958;77;21596;-61
2021/01/09 15:19:11;;;;;;;23.55;17.17;;;;;;;4.14;77.17;100664.84;3042410;77;21170;-63
2021/01/09 15:23:14;;;;;;;30.05;18.87;;;;;;;4.27;76.47;100670.80;3042805;77;21109;-61
2021/01/09 15:27:17;;;;;;;23.20;16.90;;;;;;;4.29;76.01;100671.57;3018538;77;21122;-65
2021/01/09 15:31:23;;;;;;;27.77;19.73;;;;;;;4.31;75.85;100675.45;3017904;77;21130;-61
2021/01/09 15:35:26;;;;;;;26.33;16.70;;;;;;;4.19;75.69;100674.28;3014161;77;21145;-62
2021/01/09 15:39:30;;;;;;;26.00;17.75;;;;;;;4.18;76.28;100676.05;3014723;77;21177;-64
2021/01/09 15:43:35;;;;;;;27.52;18.48;;;;;;;4.28;76.30;100679.95;3010145;77;21125;-64
2021/01/09 15:47:38;;;;;;;24.30;17.05;;;;;;;4.38;76.12;100685.62;3012783;78;21169;-68
2021/01/09 15:51:41;;;;;;;28.55;18.70;;;;;;;4.39;75.68;100683.38;3015359;79;21686;-67
2021/01/09 15:55:44;;;;;;;29.70;19.20;;;;;;;4.34;75.53;100689.34;3015125;79;21580;-67
2021/01/09 15:59:48;;;;;;;27.82;18.45;;;;;;;4.38;75.83;100693.52;3023057;78;21555;-67
2021/01/09 16:03:51;;;;;;;24.87;17.67;;;;;;;4.33;75.77;100694.22;3026013;78;21094;-68
2021/01/09 16:07:55;;;;;;;28.12;17.55;;;;;;;4.31;75.53;100708.37;2968603;80;21571;-67
2021/01/09 16:11:59;;;;;;;25.32;15.45;;;;;;;4.11;75.57;100712.35;2984882;79;21145;-68
2021/01/09 16:16:02;;;;;;;25.80;16.00;;;;;;;3.94;76.28;100713.17;2956508;80;21165;-67
2021/01/09 16:20:07;;;;;;;25.43;16.27;;;;;;;3.78;76.86;100714.36;2909605;80;21148;-67
2021/01/09 16:24:10;;;;;;;21.60;15.28;;;;;;;3.70;77.47;100725.23;2905259;81;21152;-67
2021/01/09 16:28:14;;;;;;;27.45;17.98;;;;;;;3.62;77.84;100722.56;2953888;80;21169;-67
2021/01/09 16:32:19;;;;;;;27.98;16.40;;;;;;;3.48;78.29;100725.83;2956330;80;21544;-67
2021/01/09 16:36:23;;;;;;;;;;;;;;;3.40;78.80;100723.54;2953082;80;21129;-67
2021/01/09 16:40:26;;;;;;;33.65;21.30;;;;;;;3.36;78.87;100722.81;3002900;78;20176;-67
2021/01/09 16:44:31;;;;;;;32.30;20.75;;;;;;;3.34;79.29;100719.85;2979587;79;21126;-67
2021/01/09 16:48:34;;;;;;;31.05;21.33;;;;;;;3.37;79.16;100719.73;2979670;79;21154;-68
2021/01/09 16:52:43;;;;;;;31.85;22.37;;;;;;;3.33;78.92;100726.03;2978759;79;21086;-68
2021/01/09 16:56:46;;;;;;;31.37;22.15;;;;;;;3.33;78.48;100726.03;2978477;79;21146;-65
2021/01/09 17:00:49;;;;;;;36.33;22.27;;;;;;;3.40;78.59;100730.12;2978645;79;21158;-69
2021/01/09 17:04:54;;;;;;;37.42;22.95;;;;;;;3.39;78.89;100731.04;2978602;79;21170;-69
2021/01/09 17:08:57;;;;;;;37.48;26.50;;;;;;;3.35;78.91;100732.11;3006774;78;21586;-67
2021/01/09 17:13:01;;;;;;;36.77;23.12;;;;;;;3.28;79.24;100729.73;3005901;79;21141;-68
2021/01/09 17:17:05;;;;;;;33.08;22.32;;;;;;;3.26;79.46;100733.36;3012210;79;21125;-68
2021/01/09 17:21:09;;;;;;;40.35;24.50;;;;;;;3.20;79.57;100733.17;3005751;79;22225;-67
2021/01/09 17:25:14;;;;;;;47.93;25.65;;;;;;;3.19;79.66;100738.03;3007476;79;21556;-68
2021/01/09 17:29:18;;;;;;;40.10;25.68;;;;;;;3.21;79.77;100740.13;3005966;79;21098;-69
2021/01/09 17:33:21;;;;;;;43.85;26.15;;;;;;;3.23;79.65;100736.97;3011928;79;21106;-69
2021/01/09 17:37:26;;;;;;;35.10;24.60;;;;;;;3.27;79.68;100745.11;3005622;78;21595;-67
2021/01/09 17:41:32;;;;;;;44.08;26.42;;;;;;;3.35;79.68;100751.83;2998286;79;21146;-68
2021/01/09 17:45:35;;;;;;;36.15;24.67;;;;;;;3.37;79.69;100756.56;3021334;77;21172;-69
2021/01/09 17:49:38;;;;;;;29.75;20.23;;;;;;;3.42;79.70;100759.35;3014178;77;21627;-69
2021/01/09 17:53:41;;;;;;;29.85;21.23;;;;;;;3.43;79.39;100758.91;3016762;77;21117;-67
2021/01/09 17:57:44;;;;;;;33.38;22.55;;;;;;;3.39;79.34;100758.66;3016889;77;21145;-68
2021/01/09 18:01:47;;;;;;;37.93;22.52;;;;;;;3.37;79.59;100755.24;3008623;77;21595;-68
2021/01/09 18:05:52;;;;;;;35.50;21.57;;;;;;;3.40;79.69;100762.52;3015168;77;21131;-62
2021/01/09 18:09:56;;;;;;;29.48;20.88;;;;;;;3.48;79.65;100757.39;3006161;77;21133;-61
2021/01/09 18:14:04;;;;;;;31.12;20.85;;;;;;;3.65;79.68;100754.86;2985029;79;21118;-62
2021/01/09 18:18:08;;;;;;;31.45;20.10;;;;;;;3.80;79.06;100749.35;3000814;79;21544;-64
2021/01/09 18:22:12;;;;;;;33.48;21.30;;;;;;;3.94;78.84;100755.77;2959002;80;21137;-64
2021/01/09 18:26:23;;;;;;;32.30;19.70;;;;;;;4.07;78.62;100757.35;2958498;80;21074;-63
2021/01/09 18:30:28;;;;;;;33.38;20.35;;;;;;;4.16;78.09;100746.85;3001506;79;21624;-63
2021/01/09 18:34:32;;;;;;;38.83;21.70;;;;;;;4.22;77.86;100754.45;3005894;78;21153;-64
2021/01/09 18:38:36;;;;;;;31.05;20.68;;;;;;;4.26;77.60;100754.23;3005896;78;21137;-64
2021/01/09 18:42:40;;;;;;;32.25;20.37;;;;;;;4.31;77.02;100754.47;2982745;79;21126;-63
2021/01/09 18:46:44;;;;;;;31.27;21.48;;;;;;;4.28;77.17;100749.75;2991263;79;21112;-63
2021/01/09 18:50:48;;;;;;;42.23;23.95;;;;;;;4.35;77.07;100752.94;2958576;80;21678;-62